sensor_id;sensor_type;location;lat;lon;timestamp;temperature;humidity
10911;DHT22;5508;49.150;11.030;2023-05-07T00:01:53;8.00;99.90
10911;DHT22;5508;49.150;11.030;2023-05-07T00:04:54;8.10;99.90
10911;DHT22;5508;49.150;11.030;2023-05-07T00:07:55;8.20;99.90
10911;DHT22;5508;49.150;11.030;2023-05-07T00:10:56;8.20;99.90
10911;DHT22;5508;49.150;11.030;2023-05-07T00:13:56;8.20;99.90
10911;DHT22;5508;49.150;11.030;2023-05-07T00:16:57;8.30;99.90
10911;DHT22;5508;49.150;11.030;2023-05-07T00:19:58;8.20;99.90
10911;DHT22;5508;49.150;11.030;2023-05-07T00:22:59;8.30;99.90
10911;DHT22;5508;49.150;11.030;2023-05-07T00:25:59;8.20;99.90
10911;DHT22;5508;49.150;11.030;2023-05-07T00:29:00;8.10;99.90
10911;DHT22;5508;49.150;11.030;2023-05-07T00:32:00;8.20;99.90
10911;DHT22;5508;49.150;11.030;2023-05-07T00:35:01;8.20;99.90
10911;DHT22;5508;49.150;11.030;2023-05-07T00:38:02;8.10;99.90
10911;DHT22;5508;49.150;11.030;2023-05-07T00:41:02;8.20;99.90
10911;DHT22;5508;49.150;11.030;2023-05-07T00:44:03;8.20;99.90
10911;DHT22;5508;49.150;11.030;2023-05-07T00:47:05;8.30;99.90
10911;DHT22;5508;49.150;11.030;2023-05-07T00:50:07;8.40;99.90
10911;DHT22;5508;49.150;11.030;2023-05-07T00:53:08;8.40;99.90
10911;DHT22;5508;49.150;11.030;2023-05-07T00:56:09;8.40;99.90
10911;DHT22;5508;49.150;11.030;2023-05-07T00:59:10;8.40;99.90
10911;DHT22;5508;49.150;11.030;2023-05-07T01:02:11;8.50;99.90
10911;DHT22;5508;49.150;11.030;2023-05-07T01:05:14;8.50;99.90
10911;DHT22;5508;49.150;11.030;2023-05-07T01:08:16;8.40;99.90
10911;DHT22;5508;49.150;11.030;2023-05-07T01:11:18;8.40;99.90
10911;DHT22;5508;49.150;11.030;2023-05-07T01:14:20;8.40;99.90
10911;DHT22;5508;49.150;11.030;2023-05-07T01:17:21;8.30;99.90
10911;DHT22;5508;49.150;11.030;2023-05-07T01:20:22;8.30;99.90
10911;DHT22;5508;49.150;11.030;2023-05-07T01:23:23;8.30;99.90
10911;DHT22;5508;49.150;11.030;2023-05-07T01:26:25;8.20;99.90
10911;DHT22;5508;49.150;11.030;2023-05-07T01:29:26;8.20;99.90
10911;DHT22;5508;49.150;11.030;2023-05-07T01:33:18;8.20;99.90
10911;DHT22;5508;49.150;11.030;2023-05-07T01:36:00;8.20;99.90
10911;DHT22;5508;49.150;11.030;2023-05-07T01:39:02;8.10;99.90
10911;DHT22;5508;49.150;11.030;2023-05-07T01:42:03;8.10;99.90
10911;DHT22;5508;49.150;11.030;2023-05-07T01:45:04;8.10;99.90
10911;DHT22;5508;49.150;11.030;2023-05-07T01:48:06;8.10;99.90
10911;DHT22;5508;49.150;11.030;2023-05-07T01:51:08;8.00;99.90
10911;DHT22;5508;49.150;11.030;2023-05-07T01:54:09;8.00;99.90
10911;DHT22;5508;49.150;11.030;2023-05-07T01:57:10;8.00;99.90
10911;DHT22;5508;49.150;11.030;2023-05-07T02:00:11;7.90;99.90
10911;DHT22;5508;49.150;11.030;2023-05-07T02:03:11;7.80;99.90
10911;DHT22;5508;49.150;11.030;2023-05-07T02:06:12;7.70;99.90
10911;DHT22;5508;49.150;11.030;2023-05-07T02:09:13;7.70;99.90
10911;DHT22;5508;49.150;11.030;2023-05-07T02:12:15;7.60;99.90
10911;DHT22;5508;49.150;11.030;2023-05-07T02:15:15;7.50;99.90
10911;DHT22;5508;49.150;11.030;2023-05-07T02:18:16;7.50;99.90
10911;DHT22;5508;49.150;11.030;2023-05-07T02:21:17;7.50;99.90
10911;DHT22;5508;49.150;11.030;2023-05-07T02:24:18;7.50;99.90
10911;DHT22;5508;49.150;11.030;2023-05-07T02:27:18;7.50;99.90
10911;DHT22;5508;49.150;11.030;2023-05-07T02:30:19;7.40;99.90
10911;DHT22;5508;49.150;11.030;2023-05-07T02:33:21;7.40;99.90
10911;DHT22;5508;49.150;11.030;2023-05-07T02:36:22;7.40;99.90
10911;DHT22;5508;49.150;11.030;2023-05-07T02:39:22;7.30;99.90
10911;DHT22;5508;49.150;11.030;2023-05-07T02:42:23;7.30;99.90
10911;DHT22;5508;49.150;11.030;2023-05-07T02:45:23;7.20;99.90
10911;DHT22;5508;49.150;11.030;2023-05-07T02:48:24;7.20;99.90
10911;DHT22;5508;49.150;11.030;2023-05-07T02:51:26;7.20;99.90
10911;DHT22;5508;49.150;11.030;2023-05-07T02:54:27;7.10;99.90
10911;DHT22;5508;49.150;11.030;2023-05-07T02:57:27;7.00;99.90
10911;DHT22;5508;49.150;11.030;2023-05-07T03:00:28;7.00;99.90
10911;DHT22;5508;49.150;11.030;2023-05-07T03:03:28;7.00;99.90
10911;DHT22;5508;49.150;11.030;2023-05-07T03:06:29;7.00;99.90
10911;DHT22;5508;49.150;11.030;2023-05-07T03:09:30;7.00;99.90
10911;DHT22;5508;49.150;11.030;2023-05-07T03:12:31;6.90;99.90
10911;DHT22;5508;49.150;11.030;2023-05-07T03:15:31;6.90;99.90
10911;DHT22;5508;49.150;11.030;2023-05-07T03:18:32;7.00;99.90
10911;DHT22;5508;49.150;11.030;2023-05-07T03:21:32;7.00;99.90
10911;DHT22;5508;49.150;11.030;2023-05-07T03:24:34;7.00;99.90
10911;DHT22;5508;49.150;11.030;2023-05-07T03:27:35;7.00;99.90
10911;DHT22;5508;49.150;11.030;2023-05-07T03:30:35;7.10;99.90
10911;DHT22;5508;49.150;11.030;2023-05-07T03:33:49;7.10;99.90
10911;DHT22;5508;49.150;11.030;2023-05-07T03:36:50;7.10;99.90
10911;DHT22;5508;49.150;11.030;2023-05-07T03:39:50;7.20;99.90
10911;DHT22;5508;49.150;11.030;2023-05-07T03:42:51;7.30;99.90
10911;DHT22;5508;49.150;11.030;2023-05-07T03:45:51;7.30;99.90
10911;DHT22;5508;49.150;11.030;2023-05-07T03:48:52;7.40;99.90
10911;DHT22;5508;49.150;11.030;2023-05-07T03:51:53;7.40;99.90
10911;DHT22;5508;49.150;11.030;2023-05-07T03:54:53;7.50;99.90
10911;DHT22;5508;49.150;11.030;2023-05-07T03:57:54;7.50;99.90
10911;DHT22;5508;49.150;11.030;2023-05-07T04:00:54;7.40;99.90
10911;DHT22;5508;49.150;11.030;2023-05-07T04:03:55;7.40;99.90
10911;DHT22;5508;49.150;11.030;2023-05-07T04:06:56;7.40;99.90
10911;DHT22;5508;49.150;11.030;2023-05-07T04:09:56;7.40;99.90
10911;DHT22;5508;49.150;11.030;2023-05-07T04:12:57;7.50;99.90
10911;DHT22;5508;49.150;11.030;2023-05-07T04:16:01;7.50;99.90
10911;DHT22;5508;49.150;11.030;2023-05-07T04:19:02;7.60;99.90
10911;DHT22;5508;49.150;11.030;2023-05-07T04:22:03;7.70;99.90
10911;DHT22;5508;49.150;11.030;2023-05-07T04:25:04;7.70;99.90
10911;DHT22;5508;49.150;11.030;2023-05-07T04:28:04;7.80;99.90
10911;DHT22;5508;49.150;11.030;2023-05-07T04:31:05;7.90;99.90
10911;DHT22;5508;49.150;11.030;2023-05-07T04:34:06;8.00;99.90
10911;DHT22;5508;49.150;11.030;2023-05-07T04:37:07;8.10;99.90
10911;DHT22;5508;49.150;11.030;2023-05-07T04:40:08;8.20;99.90
10911;DHT22;5508;49.150;11.030;2023-05-07T04:43:09;8.30;99.90
10911;DHT22;5508;49.150;11.030;2023-05-07T04:46:09;8.40;99.90
10911;DHT22;5508;49.150;11.030;2023-05-07T04:49:10;8.50;99.90
10911;DHT22;5508;49.150;11.030;2023-05-07T04:52:11;8.60;99.90
10911;DHT22;5508;49.150;11.030;2023-05-07T04:55:11;8.70;99.90
10911;DHT22;5508;49.150;11.030;2023-05-07T04:58:12;8.80;99.90
10911;DHT22;5508;49.150;11.030;2023-05-07T05:01:12;8.90;99.90
10911;DHT22;5508;49.150;11.030;2023-05-07T05:04:13;9.00;99.90
10911;DHT22;5508;49.150;11.030;2023-05-07T05:07:14;9.10;99.90
10911;DHT22;5508;49.150;11.030;2023-05-07T05:10:14;9.30;99.90
10911;DHT22;5508;49.150;11.030;2023-05-07T05:13:16;9.40;99.90
10911;DHT22;5508;49.150;11.030;2023-05-07T05:16:17;9.50;99.90
10911;DHT22;5508;49.150;11.030;2023-05-07T05:19:17;9.60;99.90
10911;DHT22;5508;49.150;11.030;2023-05-07T05:22:18;9.60;99.90
10911;DHT22;5508;49.150;11.030;2023-05-07T05:25:18;9.60;99.90
10911;DHT22;5508;49.150;11.030;2023-05-07T05:28:19;9.70;99.90
10911;DHT22;5508;49.150;11.030;2023-05-07T05:31:20;9.80;99.90
10911;DHT22;5508;49.150;11.030;2023-05-07T05:34:21;9.80;99.90
10911;DHT22;5508;49.150;11.030;2023-05-07T05:37:22;9.90;99.90
10911;DHT22;5508;49.150;11.030;2023-05-07T05:40:23;10.20;99.90
10911;DHT22;5508;49.150;11.030;2023-05-07T05:43:23;10.30;99.90
10911;DHT22;5508;49.150;11.030;2023-05-07T05:46:24;10.50;99.90
10911;DHT22;5508;49.150;11.030;2023-05-07T05:49:25;10.60;99.90
10911;DHT22;5508;49.150;11.030;2023-05-07T05:52:26;10.60;99.90
10911;DHT22;5508;49.150;11.030;2023-05-07T05:55:26;10.80;99.90
10911;DHT22;5508;49.150;11.030;2023-05-07T05:58:27;10.90;99.90
10911;DHT22;5508;49.150;11.030;2023-05-07T06:01:28;10.90;99.90
10911;DHT22;5508;49.150;11.030;2023-05-07T06:04:28;11.00;99.90
10911;DHT22;5508;49.150;11.030;2023-05-07T06:07:29;11.20;99.90
10911;DHT22;5508;49.150;11.030;2023-05-07T06:10:30;11.50;99.90
10911;DHT22;5508;49.150;11.030;2023-05-07T06:13:30;11.70;99.90
10911;DHT22;5508;49.150;11.030;2023-05-07T06:16:31;12.00;99.40
10911;DHT22;5508;49.150;11.030;2023-05-07T06:19:32;12.10;99.90
10911;DHT22;5508;49.150;11.030;2023-05-07T06:22:32;12.30;98.30
10911;DHT22;5508;49.150;11.030;2023-05-07T06:25:33;12.40;98.30
10911;DHT22;5508;49.150;11.030;2023-05-07T06:28:34;12.60;98.20
10911;DHT22;5508;49.150;11.030;2023-05-07T06:31:37;12.80;97.90
10911;DHT22;5508;49.150;11.030;2023-05-07T06:34:38;12.90;99.90
10911;DHT22;5508;49.150;11.030;2023-05-07T06:37:39;13.30;95.30
10911;DHT22;5508;49.150;11.030;2023-05-07T06:40:39;13.70;93.80
10911;DHT22;5508;49.150;11.030;2023-05-07T06:43:40;14.00;90.80
10911;DHT22;5508;49.150;11.030;2023-05-07T06:46:41;14.30;88.10
10911;DHT22;5508;49.150;11.030;2023-05-07T06:49:41;14.60;88.10
10911;DHT22;5508;49.150;11.030;2023-05-07T06:52:42;14.90;87.50
10911;DHT22;5508;49.150;11.030;2023-05-07T06:55:43;14.90;84.40
10911;DHT22;5508;49.150;11.030;2023-05-07T06:58:43;15.00;83.40
10911;DHT22;5508;49.150;11.030;2023-05-07T07:01:44;15.40;80.70
10911;DHT22;5508;49.150;11.030;2023-05-07T07:04:44;15.80;80.60
10911;DHT22;5508;49.150;11.030;2023-05-07T07:07:45;15.90;77.00
10911;DHT22;5508;49.150;11.030;2023-05-07T07:10:52;16.00;78.40
10911;DHT22;5508;49.150;11.030;2023-05-07T07:13:53;16.00;76.20
10911;DHT22;5508;49.150;11.030;2023-05-07T07:16:54;16.00;75.90
10911;DHT22;5508;49.150;11.030;2023-05-07T07:19:55;15.90;77.00
10911;DHT22;5508;49.150;11.030;2023-05-07T07:22:55;16.20;77.70
10911;DHT22;5508;49.150;11.030;2023-05-07T07:25:56;16.30;77.10
10911;DHT22;5508;49.150;11.030;2023-05-07T07:28:57;16.60;76.40
10911;DHT22;5508;49.150;11.030;2023-05-07T07:31:57;16.70;73.00
10911;DHT22;5508;49.150;11.030;2023-05-07T07:34:58;16.80;76.70
10911;DHT22;5508;49.150;11.030;2023-05-07T07:37:58;17.00;73.30
10911;DHT22;5508;49.150;11.030;2023-05-07T07:41:00;17.10;71.70
10911;DHT22;5508;49.150;11.030;2023-05-07T07:44:00;17.20;70.20
10911;DHT22;5508;49.150;11.030;2023-05-07T07:47:01;17.60;70.40
10911;DHT22;5508;49.150;11.030;2023-05-07T07:50:02;18.30;69.80
10911;DHT22;5508;49.150;11.030;2023-05-07T07:53:02;18.50;67.40
10911;DHT22;5508;49.150;11.030;2023-05-07T07:56:03;18.50;64.30
10911;DHT22;5508;49.150;11.030;2023-05-07T07:59:04;18.20;65.60
10911;DHT22;5508;49.150;11.030;2023-05-07T08:02:05;18.40;70.10
10911;DHT22;5508;49.150;11.030;2023-05-07T08:05:06;19.20;64.80
10911;DHT22;5508;49.150;11.030;2023-05-07T08:08:08;19.30;63.50
10911;DHT22;5508;49.150;11.030;2023-05-07T08:11:09;18.70;66.00
10911;DHT22;5508;49.150;11.030;2023-05-07T08:14:11;18.70;67.30
10911;DHT22;5508;49.150;11.030;2023-05-07T08:17:12;18.20;70.70
10911;DHT22;5508;49.150;11.030;2023-05-07T08:20:13;18.20;70.00
10911;DHT22;5508;49.150;11.030;2023-05-07T08:23:14;18.50;67.60
10911;DHT22;5508;49.150;11.030;2023-05-07T08:26:14;18.90;64.80
10911;DHT22;5508;49.150;11.030;2023-05-07T08:29:15;18.80;64.50
10911;DHT22;5508;49.150;11.030;2023-05-07T08:32:16;19.00;66.90
10911;DHT22;5508;49.150;11.030;2023-05-07T08:35:16;19.20;66.30
10911;DHT22;5508;49.150;11.030;2023-05-07T08:38:17;19.20;63.20
10911;DHT22;5508;49.150;11.030;2023-05-07T08:41:18;19.10;66.20
10911;DHT22;5508;49.150;11.030;2023-05-07T08:44:22;19.20;63.10
10911;DHT22;5508;49.150;11.030;2023-05-07T08:47:29;19.30;65.80
10911;DHT22;5508;49.150;11.030;2023-05-07T08:50:36;19.40;64.40
10911;DHT22;5508;49.150;11.030;2023-05-07T08:53:40;19.50;63.90
10911;DHT22;5508;49.150;11.030;2023-05-07T08:56:41;19.50;62.60
10911;DHT22;5508;49.150;11.030;2023-05-07T08:59:41;19.50;64.30
10911;DHT22;5508;49.150;11.030;2023-05-07T09:02:42;19.60;63.00
10911;DHT22;5508;49.150;11.030;2023-05-07T09:05:43;19.40;62.50
10911;DHT22;5508;49.150;11.030;2023-05-07T09:08:50;19.50;63.50
10911;DHT22;5508;49.150;11.030;2023-05-07T09:11:57;19.60;63.00
10911;DHT22;5508;49.150;11.030;2023-05-07T09:14:59;19.70;63.00
10911;DHT22;5508;49.150;11.030;2023-05-07T09:18:00;19.80;61.50
10911;DHT22;5508;49.150;11.030;2023-05-07T09:21:03;20.20;61.50
10911;DHT22;5508;49.150;11.030;2023-05-07T09:24:04;20.50;58.30
10911;DHT22;5508;49.150;11.030;2023-05-07T09:27:06;20.20;58.90
10911;DHT22;5508;49.150;11.030;2023-05-07T09:30:07;20.30;62.40
10911;DHT22;5508;49.150;11.030;2023-05-07T09:33:08;20.50;59.50
10911;DHT22;5508;49.150;11.030;2023-05-07T09:36:09;20.80;60.10
10911;DHT22;5508;49.150;11.030;2023-05-07T09:39:10;21.20;61.10
10911;DHT22;5508;49.150;11.030;2023-05-07T09:42:11;21.20;58.90
10911;DHT22;5508;49.150;11.030;2023-05-07T09:45:12;21.00;59.40
10911;DHT22;5508;49.150;11.030;2023-05-07T09:48:15;20.80;58.90
10911;DHT22;5508;49.150;11.030;2023-05-07T09:54:37;20.80;58.10
10911;DHT22;5508;49.150;11.030;2023-05-07T09:57:42;20.60;59.30
10911;DHT22;5508;49.150;11.030;2023-05-07T10:00:43;20.60;57.60
10911;DHT22;5508;49.150;11.030;2023-05-07T10:03:44;20.40;60.30
10911;DHT22;5508;49.150;11.030;2023-05-07T10:06:46;20.70;61.40
10911;DHT22;5508;49.150;11.030;2023-05-07T10:09:47;20.80;59.50
10911;DHT22;5508;49.150;11.030;2023-05-07T10:12:48;21.00;60.30
10911;DHT22;5508;49.150;11.030;2023-05-07T10:15:50;21.10;57.40
10911;DHT22;5508;49.150;11.030;2023-05-07T10:18:51;20.80;57.30
10911;DHT22;5508;49.150;11.030;2023-05-07T10:21:59;20.70;60.60
10911;DHT22;5508;49.150;11.030;2023-05-07T10:25:03;20.70;59.40
10911;DHT22;5508;49.150;11.030;2023-05-07T10:28:08;20.70;59.40
10911;DHT22;5508;49.150;11.030;2023-05-07T10:34:16;20.50;57.00
10911;DHT22;5508;49.150;11.030;2023-05-07T10:37:19;20.50;60.10
10911;DHT22;5508;49.150;11.030;2023-05-07T10:40:20;21.00;58.40
10911;DHT22;5508;49.150;11.030;2023-05-07T10:43:21;20.80;56.60
10911;DHT22;5508;49.150;11.030;2023-05-07T10:46:22;21.10;58.20
10911;DHT22;5508;49.150;11.030;2023-05-07T10:49:23;21.60;56.30
10911;DHT22;5508;49.150;11.030;2023-05-07T10:52:24;22.00;54.60
10911;DHT22;5508;49.150;11.030;2023-05-07T10:55:26;22.10;54.70
10911;DHT22;5508;49.150;11.030;2023-05-07T10:58:27;22.30;53.90
10911;DHT22;5508;49.150;11.030;2023-05-07T11:01:53;22.30;51.50
10911;DHT22;5508;49.150;11.030;2023-05-07T11:05:22;22.00;51.30
10911;DHT22;5508;49.150;11.030;2023-05-07T11:08:23;22.00;53.90
10911;DHT22;5508;49.150;11.030;2023-05-07T11:14:47;21.70;56.10
10911;DHT22;5508;49.150;11.030;2023-05-07T11:17:54;21.60;53.20
10911;DHT22;5508;49.150;11.030;2023-05-07T11:20:59;21.80;53.90
10911;DHT22;5508;49.150;11.030;2023-05-07T11:24:00;22.30;52.40
10911;DHT22;5508;49.150;11.030;2023-05-07T11:27:12;22.60;51.40
10911;DHT22;5508;49.150;11.030;2023-05-07T11:30:22;22.60;53.20
10911;DHT22;5508;49.150;11.030;2023-05-07T11:33:23;22.30;51.20
10911;DHT22;5508;49.150;11.030;2023-05-07T11:36:32;22.20;49.10
10911;DHT22;5508;49.150;11.030;2023-05-07T11:39:33;22.20;53.30
10911;DHT22;5508;49.150;11.030;2023-05-07T11:42:38;22.30;50.80
10911;DHT22;5508;49.150;11.030;2023-05-07T11:45:39;22.50;47.20
10911;DHT22;5508;49.150;11.030;2023-05-07T11:48:40;22.30;48.40
10911;DHT22;5508;49.150;11.030;2023-05-07T11:51:41;22.40;48.30
10911;DHT22;5508;49.150;11.030;2023-05-07T11:54:55;22.10;52.90
10911;DHT22;5508;49.150;11.030;2023-05-07T11:57:56;22.10;48.80
10911;DHT22;5508;49.150;11.030;2023-05-07T12:00:57;22.00;49.00
10911;DHT22;5508;49.150;11.030;2023-05-07T12:03:57;22.20;50.10
10911;DHT22;5508;49.150;11.030;2023-05-07T12:06:58;22.20;50.00
10911;DHT22;5508;49.150;11.030;2023-05-07T12:09:58;22.30;47.50
10911;DHT22;5508;49.150;11.030;2023-05-07T12:12:59;22.00;49.30
10911;DHT22;5508;49.150;11.030;2023-05-07T12:16:00;22.30;53.90
10911;DHT22;5508;49.150;11.030;2023-05-07T12:19:03;22.50;45.90
10911;DHT22;5508;49.150;11.030;2023-05-07T12:22:04;22.50;50.50
10911;DHT22;5508;49.150;11.030;2023-05-07T12:25:06;22.10;49.20
10911;DHT22;5508;49.150;11.030;2023-05-07T12:28:07;21.80;49.00
10911;DHT22;5508;49.150;11.030;2023-05-07T12:31:08;22.10;53.50
10911;DHT22;5508;49.150;11.030;2023-05-07T12:34:11;22.40;48.70
10911;DHT22;5508;49.150;11.030;2023-05-07T12:37:12;22.00;46.20
10911;DHT22;5508;49.150;11.030;2023-05-07T12:40:13;21.80;50.60
10911;DHT22;5508;49.150;11.030;2023-05-07T12:43:18;22.10;50.50
10911;DHT22;5508;49.150;11.030;2023-05-07T12:46:18;22.30;47.10
10911;DHT22;5508;49.150;11.030;2023-05-07T12:49:19;22.30;43.80
10911;DHT22;5508;49.150;11.030;2023-05-07T12:52:20;22.30;45.20
10911;DHT22;5508;49.150;11.030;2023-05-07T12:55:21;22.00;47.00
10911;DHT22;5508;49.150;11.030;2023-05-07T12:58:26;21.60;44.20
10911;DHT22;5508;49.150;11.030;2023-05-07T13:01:30;21.40;48.10
10911;DHT22;5508;49.150;11.030;2023-05-07T13:04:31;21.30;47.50
10911;DHT22;5508;49.150;11.030;2023-05-07T13:07:32;21.30;47.40
10911;DHT22;5508;49.150;11.030;2023-05-07T13:10:33;21.20;47.70
10911;DHT22;5508;49.150;11.030;2023-05-07T13:13:35;21.40;49.00
10911;DHT22;5508;49.150;11.030;2023-05-07T13:16:36;21.50;48.20
10911;DHT22;5508;49.150;11.030;2023-05-07T13:19:36;22.00;44.40
10911;DHT22;5508;49.150;11.030;2023-05-07T13:22:38;22.30;47.40
10911;DHT22;5508;49.150;11.030;2023-05-07T13:25:38;22.00;47.50
10911;DHT22;5508;49.150;11.030;2023-05-07T13:28:39;21.80;48.00
10911;DHT22;5508;49.150;11.030;2023-05-07T13:31:39;21.60;49.00
10911;DHT22;5508;49.150;11.030;2023-05-07T13:34:44;21.50;48.50
10911;DHT22;5508;49.150;11.030;2023-05-07T13:37:44;21.70;49.20
10911;DHT22;5508;49.150;11.030;2023-05-07T13:40:45;21.90;47.50
10911;DHT22;5508;49.150;11.030;2023-05-07T13:43:46;22.30;49.10
10911;DHT22;5508;49.150;11.030;2023-05-07T13:46:46;22.50;48.70
10911;DHT22;5508;49.150;11.030;2023-05-07T13:49:47;22.60;48.50
10911;DHT22;5508;49.150;11.030;2023-05-07T13:52:49;22.70;47.00
10911;DHT22;5508;49.150;11.030;2023-05-07T13:55:53;23.00;46.00
10911;DHT22;5508;49.150;11.030;2023-05-07T13:58:53;23.00;43.60
10911;DHT22;5508;49.150;11.030;2023-05-07T14:01:54;22.70;43.80
10911;DHT22;5508;49.150;11.030;2023-05-07T14:04:55;22.60;45.10
10911;DHT22;5508;49.150;11.030;2023-05-07T14:07:57;22.60;42.90
10911;DHT22;5508;49.150;11.030;2023-05-07T14:10:58;22.30;44.70
10911;DHT22;5508;49.150;11.030;2023-05-07T14:13:58;22.10;42.10
10911;DHT22;5508;49.150;11.030;2023-05-07T14:20:00;22.10;45.20
10911;DHT22;5508;49.150;11.030;2023-05-07T14:23:01;22.30;47.70
10911;DHT22;5508;49.150;11.030;2023-05-07T14:26:01;22.40;45.10
10911;DHT22;5508;49.150;11.030;2023-05-07T14:29:02;22.50;45.80
10911;DHT22;5508;49.150;11.030;2023-05-07T14:32:03;22.70;40.90
10911;DHT22;5508;49.150;11.030;2023-05-07T14:35:04;22.60;39.90
10911;DHT22;5508;49.150;11.030;2023-05-07T14:38:05;22.20;43.20
10911;DHT22;5508;49.150;11.030;2023-05-07T14:41:05;22.30;41.90
10911;DHT22;5508;49.150;11.030;2023-05-07T14:44:06;22.30;41.90
10911;DHT22;5508;49.150;11.030;2023-05-07T14:47:07;22.30;41.30
10911;DHT22;5508;49.150;11.030;2023-05-07T14:50:08;22.30;40.00
10911;DHT22;5508;49.150;11.030;2023-05-07T14:53:09;22.40;42.30
10911;DHT22;5508;49.150;11.030;2023-05-07T14:56:09;22.50;44.90
10911;DHT22;5508;49.150;11.030;2023-05-07T14:59:10;22.60;43.00
10911;DHT22;5508;49.150;11.030;2023-05-07T15:02:14;22.80;44.30
10911;DHT22;5508;49.150;11.030;2023-05-07T15:05:15;22.90;40.90
10911;DHT22;5508;49.150;11.030;2023-05-07T15:08:16;22.80;39.80
10911;DHT22;5508;49.150;11.030;2023-05-07T15:11:16;22.70;40.30
10911;DHT22;5508;49.150;11.030;2023-05-07T15:14:17;22.70;39.90
10911;DHT22;5508;49.150;11.030;2023-05-07T15:17:18;22.50;38.40
10911;DHT22;5508;49.150;11.030;2023-05-07T15:20:19;22.30;43.80
10911;DHT22;5508;49.150;11.030;2023-05-07T15:23:19;22.30;44.60
10911;DHT22;5508;49.150;11.030;2023-05-07T15:26:20;22.30;43.20
10911;DHT22;5508;49.150;11.030;2023-05-07T15:29:21;22.20;42.20
10911;DHT22;5508;49.150;11.030;2023-05-07T15:32:21;22.10;43.30
10911;DHT22;5508;49.150;11.030;2023-05-07T15:35:22;22.10;43.10
10911;DHT22;5508;49.150;11.030;2023-05-07T15:38:23;21.90;39.80
10911;DHT22;5508;49.150;11.030;2023-05-07T15:41:24;21.80;40.60
10911;DHT22;5508;49.150;11.030;2023-05-07T15:44:25;21.80;42.10
10911;DHT22;5508;49.150;11.030;2023-05-07T15:47:32;21.80;40.40
10911;DHT22;5508;49.150;11.030;2023-05-07T15:50:34;21.70;42.40
10911;DHT22;5508;49.150;11.030;2023-05-07T15:53:34;21.60;45.50
10911;DHT22;5508;49.150;11.030;2023-05-07T15:56:35;21.50;46.00
10911;DHT22;5508;49.150;11.030;2023-05-07T15:59:35;21.50;45.50
10911;DHT22;5508;49.150;11.030;2023-05-07T16:02:36;21.40;44.70
10911;DHT22;5508;49.150;11.030;2023-05-07T16:05:37;21.30;46.40
10911;DHT22;5508;49.150;11.030;2023-05-07T16:08:37;21.10;45.70
10911;DHT22;5508;49.150;11.030;2023-05-07T16:11:39;21.00;46.90
10911;DHT22;5508;49.150;11.030;2023-05-07T16:14:40;21.00;44.70
10911;DHT22;5508;49.150;11.030;2023-05-07T16:17:41;20.90;47.40
10911;DHT22;5508;49.150;11.030;2023-05-07T16:20:42;20.90;46.90
10911;DHT22;5508;49.150;11.030;2023-05-07T16:23:43;20.80;46.50
10911;DHT22;5508;49.150;11.030;2023-05-07T16:26:43;20.70;46.80
10911;DHT22;5508;49.150;11.030;2023-05-07T16:29:44;20.60;48.30
10911;DHT22;5508;49.150;11.030;2023-05-07T16:32:45;20.60;48.90
10911;DHT22;5508;49.150;11.030;2023-05-07T16:35:51;20.60;49.20
10911;DHT22;5508;49.150;11.030;2023-05-07T16:38:51;20.60;52.40
10911;DHT22;5508;49.150;11.030;2023-05-07T16:41:52;20.70;52.50
10911;DHT22;5508;49.150;11.030;2023-05-07T16:44:53;20.60;49.70
10911;DHT22;5508;49.150;11.030;2023-05-07T16:47:54;20.60;49.30
10911;DHT22;5508;49.150;11.030;2023-05-07T16:50:57;20.40;49.20
10911;DHT22;5508;49.150;11.030;2023-05-07T16:53:58;20.30;52.40
10911;DHT22;5508;49.150;11.030;2023-05-07T16:56:58;20.30;51.30
10911;DHT22;5508;49.150;11.030;2023-05-07T16:59:59;20.20;50.90
10911;DHT22;5508;49.150;11.030;2023-05-07T17:02:59;20.10;52.00
10911;DHT22;5508;49.150;11.030;2023-05-07T17:06:00;20.00;53.60
10911;DHT22;5508;49.150;11.030;2023-05-07T17:09:01;19.90;52.40
10911;DHT22;5508;49.150;11.030;2023-05-07T17:12:02;19.80;54.00
10911;DHT22;5508;49.150;11.030;2023-05-07T17:15:03;19.70;53.00
10911;DHT22;5508;49.150;11.030;2023-05-07T17:18:03;19.60;53.80
10911;DHT22;5508;49.150;11.030;2023-05-07T17:21:04;19.60;53.70
10911;DHT22;5508;49.150;11.030;2023-05-07T17:24:05;19.50;54.20
10911;DHT22;5508;49.150;11.030;2023-05-07T17:27:06;19.40;54.40
10911;DHT22;5508;49.150;11.030;2023-05-07T17:30:07;19.30;54.10
10911;DHT22;5508;49.150;11.030;2023-05-07T17:33:08;19.20;54.90
10911;DHT22;5508;49.150;11.030;2023-05-07T17:36:09;19.20;54.90
10911;DHT22;5508;49.150;11.030;2023-05-07T17:39:09;19.10;55.50
10911;DHT22;5508;49.150;11.030;2023-05-07T17:42:10;19.00;56.00
10911;DHT22;5508;49.150;11.030;2023-05-07T17:45:10;18.90;56.50
10911;DHT22;5508;49.150;11.030;2023-05-07T17:48:11;18.80;56.70
10911;DHT22;5508;49.150;11.030;2023-05-07T17:51:12;18.70;57.00
10911;DHT22;5508;49.150;11.030;2023-05-07T17:54:12;18.60;58.00
10911;DHT22;5508;49.150;11.030;2023-05-07T17:57:13;18.50;58.00
10911;DHT22;5508;49.150;11.030;2023-05-07T18:00:14;18.50;58.30
10911;DHT22;5508;49.150;11.030;2023-05-07T18:03:15;18.40;58.30
10911;DHT22;5508;49.150;11.030;2023-05-07T18:06:16;18.20;60.00
10911;DHT22;5508;49.150;11.030;2023-05-07T18:09:21;18.20;59.40
10911;DHT22;5508;49.150;11.030;2023-05-07T18:12:21;18.00;59.80
10911;DHT22;5508;49.150;11.030;2023-05-07T18:15:22;17.90;60.00
10911;DHT22;5508;49.150;11.030;2023-05-07T18:18:23;17.90;59.80
10911;DHT22;5508;49.150;11.030;2023-05-07T18:21:25;17.80;60.00
10911;DHT22;5508;49.150;11.030;2023-05-07T18:24:26;17.70;61.30
10911;DHT22;5508;49.150;11.030;2023-05-07T18:27:27;17.60;60.70
10911;DHT22;5508;49.150;11.030;2023-05-07T18:30:27;17.50;60.50
10911;DHT22;5508;49.150;11.030;2023-05-07T18:33:28;17.50;61.10
10911;DHT22;5508;49.150;11.030;2023-05-07T18:36:28;17.40;61.70
10911;DHT22;5508;49.150;11.030;2023-05-07T18:39:30;17.20;62.00
10911;DHT22;5508;49.150;11.030;2023-05-07T18:42:31;17.20;62.90
10911;DHT22;5508;49.150;11.030;2023-05-07T18:45:34;17.10;62.40
10911;DHT22;5508;49.150;11.030;2023-05-07T18:48:37;17.00;62.30
10911;DHT22;5508;49.150;11.030;2023-05-07T18:51:37;17.00;62.40
10911;DHT22;5508;49.150;11.030;2023-05-07T18:54:38;16.90;62.00
10911;DHT22;5508;49.150;11.030;2023-05-07T18:57:39;16.80;63.20
10911;DHT22;5508;49.150;11.030;2023-05-07T19:00:40;16.70;62.70
10911;DHT22;5508;49.150;11.030;2023-05-07T19:03:40;16.60;64.30
10911;DHT22;5508;49.150;11.030;2023-05-07T19:06:41;16.60;63.90
10911;DHT22;5508;49.150;11.030;2023-05-07T19:09:42;16.50;63.90
10911;DHT22;5508;49.150;11.030;2023-05-07T19:12:42;16.50;63.20
10911;DHT22;5508;49.150;11.030;2023-05-07T19:15:43;16.40;64.20
10911;DHT22;5508;49.150;11.030;2023-05-07T19:18:43;16.30;64.10
10911;DHT22;5508;49.150;11.030;2023-05-07T19:21:44;16.30;64.80
10911;DHT22;5508;49.150;11.030;2023-05-07T19:24:45;16.20;64.80